sensor_id;sensor_type;location;lat;lon;timestamp;temperature;humidity
28548;DHT22;68292;49.600;8.746;2024-01-11T00:00:06;8.50;36.20
28548;DHT22;68292;49.600;8.746;2024-01-11T00:02:36;8.50;36.20
28548;DHT22;68292;49.600;8.746;2024-01-11T00:05:05;8.50;36.10
28548;DHT22;68292;49.600;8.746;2024-01-11T00:07:35;8.60;36.10
28548;DHT22;68292;49.600;8.746;2024-01-11T00:10:06;8.50;36.00
28548;DHT22;68292;49.600;8.746;2024-01-11T00:12:35;8.60;36.10
28548;DHT22;68292;49.600;8.746;2024-01-11T00:15:04;8.60;36.00
28548;DHT22;68292;49.600;8.746;2024-01-11T00:17:33;8.50;36.10
28548;DHT22;68292;49.600;8.746;2024-01-11T00:20:03;8.50;36.10
28548;DHT22;68292;49.600;8.746;2024-01-11T00:22:33;8.50;36.10
28548;DHT22;68292;49.600;8.746;2024-01-11T00:25:02;8.50;36.10
28548;DHT22;68292;49.600;8.746;2024-01-11T00:27:32;8.50;36.10
28548;DHT22;68292;49.600;8.746;2024-01-11T00:30:01;8.50;36.10
28548;DHT22;68292;49.600;8.746;2024-01-11T00:32:30;8.50;36.10
28548;DHT22;68292;49.600;8.746;2024-01-11T00:34:59;8.50;36.00
28548;DHT22;68292;49.600;8.746;2024-01-11T00:37:28;8.40;36.00
28548;DHT22;68292;49.600;8.746;2024-01-11T00:39:57;8.40;36.00
28548;DHT22;68292;49.600;8.746;2024-01-11T00:42:25;8.40;36.00
28548;DHT22;68292;49.600;8.746;2024-01-11T00:44:55;8.40;36.00
28548;DHT22;68292;49.600;8.746;2024-01-11T00:47:24;8.40;36.10
28548;DHT22;68292;49.600;8.746;2024-01-11T00:49:53;8.30;36.00
28548;DHT22;68292;49.600;8.746;2024-01-11T00:52:22;8.30;36.10
28548;DHT22;68292;49.600;8.746;2024-01-11T00:54:50;8.30;36.10
28548;DHT22;68292;49.600;8.746;2024-01-11T00:57:19;8.30;36.10
28548;DHT22;68292;49.600;8.746;2024-01-11T00:59:49;8.30;36.20
28548;DHT22;68292;49.600;8.746;2024-01-11T01:02:19;8.30;36.30
28548;DHT22;68292;49.600;8.746;2024-01-11T01:04:48;8.30;36.40
28548;DHT22;68292;49.600;8.746;2024-01-11T01:07:17;8.30;36.30
28548;DHT22;68292;49.600;8.746;2024-01-11T01:09:46;8.30;36.30
28548;DHT22;68292;49.600;8.746;2024-01-11T01:12:15;8.30;36.40
28548;DHT22;68292;49.600;8.746;2024-01-11T01:14:43;8.30;36.40
28548;DHT22;68292;49.600;8.746;2024-01-11T01:17:12;8.40;36.40
28548;DHT22;68292;49.600;8.746;2024-01-11T01:19:45;8.40;36.40
28548;DHT22;68292;49.600;8.746;2024-01-11T01:22:14;8.40;36.40
28548;DHT22;68292;49.600;8.746;2024-01-11T01:24:42;8.40;36.20
28548;DHT22;68292;49.600;8.746;2024-01-11T01:27:11;8.40;36.30
28548;DHT22;68292;49.600;8.746;2024-01-11T01:29:40;8.40;36.20
28548;DHT22;68292;49.600;8.746;2024-01-11T01:32:09;8.40;36.80
28548;DHT22;68292;49.600;8.746;2024-01-11T01:34:37;8.40;36.30
28548;DHT22;68292;49.600;8.746;2024-01-11T01:37:07;8.40;36.30
28548;DHT22;68292;49.600;8.746;2024-01-11T01:39:37;8.40;36.40
28548;DHT22;68292;49.600;8.746;2024-01-11T01:42:07;8.40;36.30
28548;DHT22;68292;49.600;8.746;2024-01-11T01:44:39;8.50;36.30
28548;DHT22;68292;49.600;8.746;2024-01-11T01:47:09;8.50;36.90
28548;DHT22;68292;49.600;8.746;2024-01-11T01:49:38;8.50;36.30
28548;DHT22;68292;49.600;8.746;2024-01-11T01:52:09;8.50;36.20
28548;DHT22;68292;49.600;8.746;2024-01-11T01:54:39;8.50;36.30
28548;DHT22;68292;49.600;8.746;2024-01-11T01:57:09;8.50;36.20
28548;DHT22;68292;49.600;8.746;2024-01-11T01:59:39;8.50;36.20
28548;DHT22;68292;49.600;8.746;2024-01-11T02:02:08;8.40;36.20
28548;DHT22;68292;49.600;8.746;2024-01-11T02:04:38;8.40;36.10
28548;DHT22;68292;49.600;8.746;2024-01-11T02:07:08;8.50;36.20
28548;DHT22;68292;49.600;8.746;2024-01-11T02:09:37;8.40;36.20
28548;DHT22;68292;49.600;8.746;2024-01-11T02:12:06;8.40;36.20
28548;DHT22;68292;49.600;8.746;2024-01-11T02:14:38;8.40;36.30
28548;DHT22;68292;49.600;8.746;2024-01-11T02:17:06;8.40;36.30
28548;DHT22;68292;49.600;8.746;2024-01-11T02:19:35;8.40;36.30
28548;DHT22;68292;49.600;8.746;2024-01-11T02:22:11;8.50;36.30
28548;DHT22;68292;49.600;8.746;2024-01-11T02:24:43;8.40;36.40
28548;DHT22;68292;49.600;8.746;2024-01-11T02:27:11;8.50;36.30
28548;DHT22;68292;49.600;8.746;2024-01-11T02:29:40;8.50;36.30
28548;DHT22;68292;49.600;8.746;2024-01-11T02:32:09;8.50;36.30
28548;DHT22;68292;49.600;8.746;2024-01-11T02:34:38;8.50;36.20
28548;DHT22;68292;49.600;8.746;2024-01-11T02:37:07;8.40;36.10
28548;DHT22;68292;49.600;8.746;2024-01-11T02:39:36;8.40;36.10
28548;DHT22;68292;49.600;8.746;2024-01-11T02:42:07;8.40;36.10
28548;DHT22;68292;49.600;8.746;2024-01-11T02:44:36;8.40;36.10
28548;DHT22;68292;49.600;8.746;2024-01-11T02:47:05;8.40;36.10
28548;DHT22;68292;49.600;8.746;2024-01-11T02:49:34;8.40;36.20
28548;DHT22;68292;49.600;8.746;2024-01-11T02:52:05;8.40;36.90
28548;DHT22;68292;49.600;8.746;2024-01-11T02:54:33;8.30;36.20
28548;DHT22;68292;49.600;8.746;2024-01-11T02:57:03;8.40;36.30
28548;DHT22;68292;49.600;8.746;2024-01-11T02:59:33;8.30;36.20
28548;DHT22;68292;49.600;8.746;2024-01-11T03:02:02;8.40;36.30
28548;DHT22;68292;49.600;8.746;2024-01-11T03:04:31;8.30;36.30
28548;DHT22;68292;49.600;8.746;2024-01-11T03:07:00;8.40;36.30
28548;DHT22;68292;49.600;8.746;2024-01-11T03:09:29;8.30;36.20
28548;DHT22;68292;49.600;8.746;2024-01-11T03:11:57;8.30;36.30
28548;DHT22;68292;49.600;8.746;2024-01-11T03:14:26;8.30;36.30
28548;DHT22;68292;49.600;8.746;2024-01-11T03:16:56;8.30;36.20
28548;DHT22;68292;49.600;8.746;2024-01-11T03:19:25;8.30;36.20
28548;DHT22;68292;49.600;8.746;2024-01-11T03:21:55;8.30;36.20
28548;DHT22;68292;49.600;8.746;2024-01-11T03:24:23;8.30;36.30
28548;DHT22;68292;49.600;8.746;2024-01-11T03:26:52;8.30;36.30
28548;DHT22;68292;49.600;8.746;2024-01-11T03:29:21;8.30;36.30
28548;DHT22;68292;49.600;8.746;2024-01-11T03:31:50;8.20;36.30
28548;DHT22;68292;49.600;8.746;2024-01-11T03:34:20;8.30;36.30
28548;DHT22;68292;49.600;8.746;2024-01-11T03:36:48;8.20;36.30
28548;DHT22;68292;49.600;8.746;2024-01-11T03:39:17;8.20;36.30
28548;DHT22;68292;49.600;8.746;2024-01-11T03:41:46;8.20;36.30
28548;DHT22;68292;49.600;8.746;2024-01-11T03:44:15;8.20;36.30
28548;DHT22;68292;49.600;8.746;2024-01-11T03:46:43;8.20;36.30
28548;DHT22;68292;49.600;8.746;2024-01-11T03:49:12;8.20;36.30
28548;DHT22;68292;49.600;8.746;2024-01-11T03:51:43;8.20;36.30
28548;DHT22;68292;49.600;8.746;2024-01-11T03:54:12;8.20;36.40
28548;DHT22;68292;49.600;8.746;2024-01-11T03:56:41;8.20;36.40
28548;DHT22;68292;49.600;8.746;2024-01-11T03:59:10;8.20;36.40
28548;DHT22;68292;49.600;8.746;2024-01-11T04:01:40;8.20;36.40
28548;DHT22;68292;49.600;8.746;2024-01-11T04:04:10;8.20;36.40
28548;DHT22;68292;49.600;8.746;2024-01-11T04:06:39;8.20;36.40
28548;DHT22;68292;49.600;8.746;2024-01-11T04:09:09;8.20;36.40
28548;DHT22;68292;49.600;8.746;2024-01-11T04:11:38;8.20;36.50
28548;DHT22;68292;49.600;8.746;2024-01-11T04:14:07;8.10;36.50
28548;DHT22;68292;49.600;8.746;2024-01-11T04:16:39;8.10;36.50
28548;DHT22;68292;49.600;8.746;2024-01-11T04:19:09;8.10;36.60
28548;DHT22;68292;49.600;8.746;2024-01-11T04:21:38;8.10;36.50
28548;DHT22;68292;49.600;8.746;2024-01-11T04:24:06;8.10;36.50
28548;DHT22;68292;49.600;8.746;2024-01-11T04:26:37;8.20;36.60
28548;DHT22;68292;49.600;8.746;2024-01-11T04:29:05;8.10;36.70
28548;DHT22;68292;49.600;8.746;2024-01-11T04:31:34;8.10;36.70
28548;DHT22;68292;49.600;8.746;2024-01-11T04:34:02;8.20;36.80
28548;DHT22;68292;49.600;8.746;2024-01-11T04:36:31;8.20;36.80
28548;DHT22;68292;49.600;8.746;2024-01-11T04:38:59;8.20;36.80
28548;DHT22;68292;49.600;8.746;2024-01-11T04:41:29;8.20;36.80
28548;DHT22;68292;49.600;8.746;2024-01-11T04:43:58;8.20;36.80
28548;DHT22;68292;49.600;8.746;2024-01-11T04:46:27;8.30;36.80
28548;DHT22;68292;49.600;8.746;2024-01-11T04:48:56;8.30;36.80
28548;DHT22;68292;49.600;8.746;2024-01-11T04:51:25;8.30;36.70
28548;DHT22;68292;49.600;8.746;2024-01-11T04:53:53;8.30;36.70
28548;DHT22;68292;49.600;8.746;2024-01-11T04:56:22;8.30;36.60
28548;DHT22;68292;49.600;8.746;2024-01-11T04:58:53;8.20;36.60
28548;DHT22;68292;49.600;8.746;2024-01-11T05:01:21;8.20;36.70
28548;DHT22;68292;49.600;8.746;2024-01-11T05:03:50;8.30;36.70
28548;DHT22;68292;49.600;8.746;2024-01-11T05:06:20;8.30;36.80
28548;DHT22;68292;49.600;8.746;2024-01-11T05:08:50;8.30;36.80
28548;DHT22;68292;49.600;8.746;2024-01-11T05:11:21;8.30;36.80
28548;DHT22;68292;49.600;8.746;2024-01-11T05:13:53;8.30;36.80
28548;DHT22;68292;49.600;8.746;2024-01-11T05:16:23;8.30;36.90
28548;DHT22;68292;49.600;8.746;2024-01-11T05:18:53;8.30;36.80
28548;DHT22;68292;49.600;8.746;2024-01-11T05:21:23;8.30;36.80
28548;DHT22;68292;49.600;8.746;2024-01-11T05:23:53;8.30;36.80
28548;DHT22;68292;49.600;8.746;2024-01-11T05:26:22;8.40;36.80
28548;DHT22;68292;49.600;8.746;2024-01-11T05:28:50;8.40;36.80
28548;DHT22;68292;49.600;8.746;2024-01-11T05:31:21;8.40;36.80
28548;DHT22;68292;49.600;8.746;2024-01-11T05:33:50;8.40;36.80
28548;DHT22;68292;49.600;8.746;2024-01-11T05:36:19;8.40;36.80
28548;DHT22;68292;49.600;8.746;2024-01-11T05:38:48;8.40;36.80
28548;DHT22;68292;49.600;8.746;2024-01-11T05:41:17;8.40;36.80
28548;DHT22;68292;49.600;8.746;2024-01-11T05:43:46;8.40;37.50
28548;DHT22;68292;49.600;8.746;2024-01-11T05:46:16;8.40;36.80
28548;DHT22;68292;49.600;8.746;2024-01-11T05:48:45;8.40;36.80
28548;DHT22;68292;49.600;8.746;2024-01-11T05:51:14;8.40;36.80
28548;DHT22;68292;49.600;8.746;2024-01-11T05:53:44;8.40;36.80
28548;DHT22;68292;49.600;8.746;2024-01-11T05:56:13;8.40;36.80
28548;DHT22;68292;49.600;8.746;2024-01-11T05:58:41;8.40;36.80
28548;DHT22;68292;49.600;8.746;2024-01-11T06:01:10;8.40;36.70
28548;DHT22;68292;49.600;8.746;2024-01-11T06:03:40;8.40;36.70
28548;DHT22;68292;49.600;8.746;2024-01-11T06:06:09;8.40;36.70
28548;DHT22;68292;49.600;8.746;2024-01-11T06:08:38;8.40;36.70
28548;DHT22;68292;49.600;8.746;2024-01-11T06:11:10;8.40;36.60
28548;DHT22;68292;49.600;8.746;2024-01-11T06:13:40;8.30;36.60
28548;DHT22;68292;49.600;8.746;2024-01-11T06:16:09;8.30;36.60
28548;DHT22;68292;49.600;8.746;2024-01-11T06:18:41;8.30;36.70
28548;DHT22;68292;49.600;8.746;2024-01-11T06:21:09;8.20;36.70
28548;DHT22;68292;49.600;8.746;2024-01-11T06:23:38;8.20;36.70
28548;DHT22;68292;49.600;8.746;2024-01-11T06:26:08;8.20;36.70
28548;DHT22;68292;49.600;8.746;2024-01-11T06:28:37;8.10;36.80
28548;DHT22;68292;49.600;8.746;2024-01-11T06:31:05;8.10;36.80
28548;DHT22;68292;49.600;8.746;2024-01-11T06:33:34;8.10;36.80
28548;DHT22;68292;49.600;8.746;2024-01-11T06:36:06;8.00;36.80
28548;DHT22;68292;49.600;8.746;2024-01-11T06:38:35;8.00;36.90
28548;DHT22;68292;49.600;8.746;2024-01-11T06:41:04;8.00;36.80
28548;DHT22;68292;49.600;8.746;2024-01-11T06:43:33;8.00;36.80
28548;DHT22;68292;49.600;8.746;2024-01-11T06:46:05;8.00;36.80
28548;DHT22;68292;49.600;8.746;2024-01-11T06:48:36;7.90;36.90
28548;DHT22;68292;49.600;8.746;2024-01-11T06:51:07;7.90;36.90
28548;DHT22;68292;49.600;8.746;2024-01-11T06:53:36;7.90;37.00
28548;DHT22;68292;49.600;8.746;2024-01-11T06:56:13;7.90;36.90
28548;DHT22;68292;49.600;8.746;2024-01-11T06:58:43;7.90;37.00
28548;DHT22;68292;49.600;8.746;2024-01-11T07:01:12;7.80;36.90
28548;DHT22;68292;49.600;8.746;2024-01-11T07:03:41;7.80;36.90
28548;DHT22;68292;49.600;8.746;2024-01-11T07:06:12;7.90;37.00
28548;DHT22;68292;49.600;8.746;2024-01-11T07:08:41;7.90;37.10
28548;DHT22;68292;49.600;8.746;2024-01-11T07:11:10;7.80;37.00
28548;DHT22;68292;49.600;8.746;2024-01-11T07:13:38;7.90;37.10
28548;DHT22;68292;49.600;8.746;2024-01-11T07:16:07;7.80;37.10
28548;DHT22;68292;49.600;8.746;2024-01-11T07:18:39;7.80;37.10
28548;DHT22;68292;49.600;8.746;2024-01-11T07:21:09;7.90;37.10
28548;DHT22;68292;49.600;8.746;2024-01-11T07:23:39;7.90;37.10
28548;DHT22;68292;49.600;8.746;2024-01-11T07:26:08;7.90;37.10
28548;DHT22;68292;49.600;8.746;2024-01-11T07:28:36;7.90;37.10
28548;DHT22;68292;49.600;8.746;2024-01-11T07:31:06;7.90;37.00
28548;DHT22;68292;49.600;8.746;2024-01-11T07:33:35;7.90;37.00
28548;DHT22;68292;49.600;8.746;2024-01-11T07:36:06;7.90;37.00
28548;DHT22;68292;49.600;8.746;2024-01-11T07:38:35;7.90;37.20
28548;DHT22;68292;49.600;8.746;2024-01-11T07:41:05;7.90;37.10
28548;DHT22;68292;49.600;8.746;2024-01-11T07:43:34;7.90;37.20
28548;DHT22;68292;49.600;8.746;2024-01-11T07:46:19;7.90;37.20
28548;DHT22;68292;49.600;8.746;2024-01-11T07:49:02;7.90;37.20
28548;DHT22;68292;49.600;8.746;2024-01-11T07:51:32;7.90;37.10
28548;DHT22;68292;49.600;8.746;2024-01-11T07:54:02;7.90;37.20
28548;DHT22;68292;49.600;8.746;2024-01-11T07:56:33;7.90;37.20
28548;DHT22;68292;49.600;8.746;2024-01-11T07:59:02;7.90;37.40
28548;DHT22;68292;49.600;8.746;2024-01-11T08:01:32;8.00;37.30
28548;DHT22;68292;49.600;8.746;2024-01-11T08:04:03;7.90;37.30
28548;DHT22;68292;49.600;8.746;2024-01-11T08:06:32;8.00;37.40
28548;DHT22;68292;49.600;8.746;2024-01-11T08:09:01;8.00;37.30
28548;DHT22;68292;49.600;8.746;2024-01-11T08:11:33;8.00;37.30
28548;DHT22;68292;49.600;8.746;2024-01-11T08:14:05;8.00;37.40
28548;DHT22;68292;49.600;8.746;2024-01-11T08:16:34;8.10;37.40
28548;DHT22;68292;49.600;8.746;2024-01-11T08:19:03;8.10;37.40
28548;DHT22;68292;49.600;8.746;2024-01-11T08:21:32;8.10;37.40
28548;DHT22;68292;49.600;8.746;2024-01-11T08:24:01;8.10;37.40
28548;DHT22;68292;49.600;8.746;2024-01-11T08:26:30;8.20;38.10
28548;DHT22;68292;49.600;8.746;2024-01-11T08:29:00;8.20;37.40
28548;DHT22;68292;49.600;8.746;2024-01-11T08:31:29;8.20;37.40
28548;DHT22;68292;49.600;8.746;2024-01-11T08:33:58;8.20;37.30
28548;DHT22;68292;49.600;8.746;2024-01-11T08:36:31;8.20;37.30
28548;DHT22;68292;49.600;8.746;2024-01-11T08:39:02;8.30;37.50
28548;DHT22;68292;49.600;8.746;2024-01-11T08:41:33;8.30;37.40
28548;DHT22;68292;49.600;8.746;2024-01-11T08:44:04;8.30;37.40
28548;DHT22;68292;49.600;8.746;2024-01-11T08:46:33;8.30;37.50
28548;DHT22;68292;49.600;8.746;2024-01-11T08:49:02;8.30;37.40
28548;DHT22;68292;49.600;8.746;2024-01-11T08:51:31;8.30;37.40
28548;DHT22;68292;49.600;8.746;2024-01-11T08:54:00;8.30;37.50
28548;DHT22;68292;49.600;8.746;2024-01-11T08:56:29;8.30;37.50
28548;DHT22;68292;49.600;8.746;2024-01-11T08:58:58;8.30;37.50
28548;DHT22;68292;49.600;8.746;2024-01-11T09:01:28;8.40;37.60
28548;DHT22;68292;49.600;8.746;2024-01-11T09:03:57;8.40;37.70
28548;DHT22;68292;49.600;8.746;2024-01-11T09:06:26;8.40;37.70
28548;DHT22;68292;49.600;8.746;2024-01-11T09:08:55;8.40;37.60
28548;DHT22;68292;49.600;8.746;2024-01-11T09:11:23;8.40;37.60
28548;DHT22;68292;49.600;8.746;2024-01-11T09:13:52;8.50;37.70
28548;DHT22;68292;49.600;8.746;2024-01-11T09:16:21;8.50;37.70
28548;DHT22;68292;49.600;8.746;2024-01-11T09:18:51;8.50;37.70
28548;DHT22;68292;49.600;8.746;2024-01-11T09:21:21;8.60;37.80
28548;DHT22;68292;49.600;8.746;2024-01-11T09:23:50;8.60;37.90
28548;DHT22;68292;49.600;8.746;2024-01-11T09:26:19;8.60;38.00
28548;DHT22;68292;49.600;8.746;2024-01-11T09:28:48;8.70;38.00
28548;DHT22;68292;49.600;8.746;2024-01-11T09:31:17;8.70;37.90
28548;DHT22;68292;49.600;8.746;2024-01-11T09:33:45;8.80;38.00
28548;DHT22;68292;49.600;8.746;2024-01-11T09:36:17;8.90;38.00
28548;DHT22;68292;49.600;8.746;2024-01-11T09:38:46;8.90;38.00
28548;DHT22;68292;49.600;8.746;2024-01-11T09:41:16;9.00;38.00
28548;DHT22;68292;49.600;8.746;2024-01-11T09:43:45;9.00;38.60
28548;DHT22;68292;49.600;8.746;2024-01-11T09:46:17;9.10;37.90
28548;DHT22;68292;49.600;8.746;2024-01-11T09:48:48;9.10;37.70
28548;DHT22;68292;49.600;8.746;2024-01-11T09:51:19;9.10;37.70
28548;DHT22;68292;49.600;8.746;2024-01-11T09:53:50;9.10;37.70
28548;DHT22;68292;49.600;8.746;2024-01-11T09:56:20;9.10;37.70
28548;DHT22;68292;49.600;8.746;2024-01-11T09:58:51;9.20;37.70
28548;DHT22;68292;49.600;8.746;2024-01-11T10:01:20;9.20;37.70
28548;DHT22;68292;49.600;8.746;2024-01-11T10:03:49;9.20;37.80
28548;DHT22;68292;49.600;8.746;2024-01-11T10:06:19;9.20;37.80
28548;DHT22;68292;49.600;8.746;2024-01-11T10:08:48;9.20;37.90
28548;DHT22;68292;49.600;8.746;2024-01-11T10:11:17;9.20;37.80
28548;DHT22;68292;49.600;8.746;2024-01-11T10:13:46;9.20;37.90
28548;DHT22;68292;49.600;8.746;2024-01-11T10:16:15;9.20;38.00
28548;DHT22;68292;49.600;8.746;2024-01-11T10:18:44;9.20;38.10
28548;DHT22;68292;49.600;8.746;2024-01-11T10:21:13;9.20;38.10
28548;DHT22;68292;49.600;8.746;2024-01-11T10:23:44;9.30;38.20
28548;DHT22;68292;49.600;8.746;2024-01-11T10:26:15;9.30;38.10
28548;DHT22;68292;49.600;8.746;2024-01-11T10:28:45;9.40;38.10
28548;DHT22;68292;49.600;8.746;2024-01-11T10:31:14;9.40;38.00
28548;DHT22;68292;49.600;8.746;2024-01-11T10:33:43;9.40;38.10
28548;DHT22;68292;49.600;8.746;2024-01-11T10:36:13;9.40;38.10
28548;DHT22;68292;49.600;8.746;2024-01-11T10:38:44;9.50;38.10
28548;DHT22;68292;49.600;8.746;2024-01-11T10:41:18;9.50;38.20
28548;DHT22;68292;49.600;8.746;2024-01-11T10:43:48;9.50;38.30
28548;DHT22;68292;49.600;8.746;2024-01-11T10:46:19;9.60;38.20
28548;DHT22;68292;49.600;8.746;2024-01-11T10:48:53;9.60;38.20
28548;DHT22;68292;49.600;8.746;2024-01-11T10:51:26;9.70;38.20
28548;DHT22;68292;49.600;8.746;2024-01-11T10:54:02;9.70;38.30
28548;DHT22;68292;49.600;8.746;2024-01-11T10:56:32;9.70;38.90
28548;DHT22;68292;49.600;8.746;2024-01-11T10:59:02;9.80;38.20
28548;DHT22;68292;49.600;8.746;2024-01-11T11:01:32;9.80;38.30
28548;DHT22;68292;49.600;8.746;2024-01-11T11:04:01;9.80;38.20
28548;DHT22;68292;49.600;8.746;2024-01-11T11:06:32;9.90;38.20
28548;DHT22;68292;49.600;8.746;2024-01-11T11:09:05;9.90;38.10
28548;DHT22;68292;49.600;8.746;2024-01-11T11:11:35;9.90;38.20
28548;DHT22;68292;49.600;8.746;2024-01-11T11:14:05;10.00;38.20
28548;DHT22;68292;49.600;8.746;2024-01-11T11:16:35;10.00;38.10
28548;DHT22;68292;49.600;8.746;2024-01-11T11:19:04;10.00;38.10
28548;DHT22;68292;49.600;8.746;2024-01-11T11:21:42;10.00;38.10
28548;DHT22;68292;49.600;8.746;2024-01-11T11:24:13;10.10;38.20
28548;DHT22;68292;49.600;8.746;2024-01-11T11:26:42;10.10;38.10
28548;DHT22;68292;49.600;8.746;2024-01-11T11:29:12;10.10;38.00
28548;DHT22;68292;49.600;8.746;2024-01-11T11:31:43;10.10;38.00
28548;DHT22;68292;49.600;8.746;2024-01-11T11:34:15;10.20;38.10
28548;DHT22;68292;49.600;8.746;2024-01-11T11:36:48;10.20;38.00
28548;DHT22;68292;49.600;8.746;2024-01-11T11:39:23;10.20;38.00
28548;DHT22;68292;49.600;8.746;2024-01-11T11:41:52;10.20;38.00
28548;DHT22;68292;49.600;8.746;2024-01-11T11:44:24;10.20;37.90
28548;DHT22;68292;49.600;8.746;2024-01-11T11:46:53;10.30;37.90
28548;DHT22;68292;49.600;8.746;2024-01-11T11:49:53;10.30;37.90
28548;DHT22;68292;49.600;8.746;2024-01-11T11:52:27;10.30;38.00
28548;DHT22;68292;49.600;8.746;2024-01-11T11:54:59;10.30;37.90
28548;DHT22;68292;49.600;8.746;2024-01-11T11:57:28;10.30;37.90
28548;DHT22;68292;49.600;8.746;2024-01-11T11:59:57;10.30;37.90
28548;DHT22;68292;49.600;8.746;2024-01-11T12:02:27;10.30;38.00
28548;DHT22;68292;49.600;8.746;2024-01-11T12:04:56;10.30;38.00
28548;DHT22;68292;49.600;8.746;2024-01-11T12:07:24;10.30;38.00
28548;DHT22;68292;49.600;8.746;2024-01-11T12:09:53;10.30;38.00
28548;DHT22;68292;49.600;8.746;2024-01-11T12:12:24;10.40;38.00
28548;DHT22;68292;49.600;8.746;2024-01-11T12:14:53;10.40;38.00
28548;DHT22;68292;49.600;8.746;2024-01-11T12:17:22;10.40;38.00
28548;DHT22;68292;49.600;8.746;2024-01-11T12:19:51;10.40;38.00
28548;DHT22;68292;49.600;8.746;2024-01-11T12:22:21;10.40;38.00
28548;DHT22;68292;49.600;8.746;2024-01-11T12:24:50;10.40;38.00
28548;DHT22;68292;49.600;8.746;2024-01-11T12:27:19;10.40;38.00
28548;DHT22;68292;49.600;8.746;2024-01-11T12:29:50;10.40;37.90
28548;DHT22;68292;49.600;8.746;2024-01-11T12:32:25;10.40;37.90
28548;DHT22;68292;49.600;8.746;2024-01-11T12:34:55;10.50;37.90
28548;DHT22;68292;49.600;8.746;2024-01-11T12:37:24;10.50;38.00
28548;DHT22;68292;49.600;8.746;2024-01-11T12:39:57;10.40;37.90
28548;DHT22;68292;49.600;8.746;2024-01-11T12:42:27;10.50;37.90
28548;DHT22;68292;49.600;8.746;2024-01-11T12:44:57;10.50;37.80
28548;DHT22;68292;49.600;8.746;2024-01-11T12:47:26;10.50;37.80
28548;DHT22;68292;49.600;8.746;2024-01-11T12:49:56;10.40;37.80
28548;DHT22;68292;49.600;8.746;2024-01-11T12:52:24;10.50;37.80
28548;DHT22;68292;49.600;8.746;2024-01-11T12:54:56;10.50;37.80
28548;DHT22;68292;49.600;8.746;2024-01-11T12:57:25;10.50;37.70
28548;DHT22;68292;49.600;8.746;2024-01-11T12:59:54;10.50;37.70
28548;DHT22;68292;49.600;8.746;2024-01-11T13:02:40;10.50;37.70
28548;DHT22;68292;49.600;8.746;2024-01-11T13:05:10;10.50;37.70
28548;DHT22;68292;49.600;8.746;2024-01-11T13:07:39;10.50;37.70
28548;DHT22;68292;49.600;8.746;2024-01-11T13:10:08;10.50;37.70
28548;DHT22;68292;49.600;8.746;2024-01-11T13:12:37;10.50;37.70
28548;DHT22;68292;49.600;8.746;2024-01-11T13:15:06;10.50;37.70
28548;DHT22;68292;49.600;8.746;2024-01-11T13:17:37;10.50;37.80
28548;DHT22;68292;49.600;8.746;2024-01-11T13:20:06;10.50;37.80
28548;DHT22;68292;49.600;8.746;2024-01-11T13:22:35;10.50;37.70
28548;DHT22;68292;49.600;8.746;2024-01-11T13:25:04;10.50;37.70
28548;DHT22;68292;49.600;8.746;2024-01-11T13:27:33;10.50;37.70
28548;DHT22;68292;49.600;8.746;2024-01-11T13:30:03;10.50;37.60
28548;DHT22;68292;49.600;8.746;2024-01-11T13:32:33;10.50;37.70
28548;DHT22;68292;49.600;8.746;2024-01-11T13:35:04;10.50;37.70
28548;DHT22;68292;49.600;8.746;2024-01-11T13:37:33;10.50;37.70
28548;DHT22;68292;49.600;8.746;2024-01-11T13:40:02;10.40;37.60
28548;DHT22;68292;49.600;8.746;2024-01-11T13:42:32;10.40;37.60
28548;DHT22;68292;49.600;8.746;2024-01-11T13:45:01;10.40;37.70
28548;DHT22;68292;49.600;8.746;2024-01-11T13:47:30;10.40;37.70
28548;DHT22;68292;49.600;8.746;2024-01-11T13:49:59;10.40;37.70
28548;DHT22;68292;49.600;8.746;2024-01-11T13:52:30;10.40;37.70
28548;DHT22;68292;49.600;8.746;2024-01-11T13:54:59;10.40;37.80
28548;DHT22;68292;49.600;8.746;2024-01-11T13:57:27;10.40;37.80
28548;DHT22;68292;49.600;8.746;2024-01-11T13:59:56;10.40;37.80
28548;DHT22;68292;49.600;8.746;2024-01-11T14:02:25;10.40;37.90
28548;DHT22;68292;49.600;8.746;2024-01-11T14:04:54;10.40;37.90
28548;DHT22;68292;49.600;8.746;2024-01-11T14:07:23;10.40;37.90
28548;DHT22;68292;49.600;8.746;2024-01-11T14:09:53;10.40;37.90
28548;DHT22;68292;49.600;8.746;2024-01-11T14:12:22;10.40;37.90
28548;DHT22;68292;49.600;8.746;2024-01-11T14:14:51;10.40;38.00
28548;DHT22;68292;49.600;8.746;2024-01-11T14:17:20;10.40;37.90
28548;DHT22;68292;49.600;8.746;2024-01-11T14:19:49;10.40;37.90
28548;DHT22;68292;49.600;8.746;2024-01-11T14:22:18;10.40;38.00
28548;DHT22;68292;49.600;8.746;2024-01-11T14:24:47;10.40;37.90
28548;DHT22;68292;49.600;8.746;2024-01-11T14:27:19;10.40;38.00
28548;DHT22;68292;49.600;8.746;2024-01-11T14:29:49;10.40;38.10
28548;DHT22;68292;49.600;8.746;2024-01-11T14:32:18;10.40;38.00
28548;DHT22;68292;49.600;8.746;2024-01-11T14:35:00;10.40;38.10
28548;DHT22;68292;49.600;8.746;2024-01-11T14:37:32;10.40;38.00
28548;DHT22;68292;49.600;8.746;2024-01-11T14:40:02;10.40;38.10
28548;DHT22;68292;49.600;8.746;2024-01-11T14:42:32;10.40;38.00
28548;DHT22;68292;49.600;8.746;2024-01-11T14:45:01;10.40;38.10
28548;DHT22;68292;49.600;8.746;2024-01-11T14:47:31;10.40;38.10
28548;DHT22;68292;49.600;8.746;2024-01-11T14:50:00;10.40;38.10
28548;DHT22;68292;49.600;8.746;2024-01-11T14:52:31;10.40;38.10
28548;DHT22;68292;49.600;8.746;2024-01-11T14:55:00;10.40;38.10
28548;DHT22;68292;49.600;8.746;2024-01-11T14:57:32;10.40;38.10
28548;DHT22;68292;49.600;8.746;2024-01-11T15:00:01;10.40;38.10
28548;DHT22;68292;49.600;8.746;2024-01-11T15:02:35;10.40;38.10
28548;DHT22;68292;49.600;8.746;2024-01-11T15:05:04;10.50;38.10
28548;DHT22;68292;49.600;8.746;2024-01-11T15:07:34;10.50;38.10
28548;DHT22;68292;49.600;8.746;2024-01-11T15:10:03;10.50;38.10
28548;DHT22;68292;49.600;8.746;2024-01-11T15:12:34;10.50;38.10
28548;DHT22;68292;49.600;8.746;2024-01-11T15:15:05;10.50;38.20
28548;DHT22;68292;49.600;8.746;2024-01-11T15:17:35;10.50;38.10
28548;DHT22;68292;49.600;8.746;2024-01-11T15:20:05;10.50;38.10
28548;DHT22;68292;49.600;8.746;2024-01-11T15:22:34;10.50;38.10
28548;DHT22;68292;49.600;8.746;2024-01-11T15:25:04;10.40;38.00
28548;DHT22;68292;49.600;8.746;2024-01-11T15:27:35;10.40;38.10
28548;DHT22;68292;49.600;8.746;2024-01-11T15:30:05;10.40;38.00
28548;DHT22;68292;49.600;8.746;2024-01-11T15:32:35;10.40;38.00
28548;DHT22;68292;49.600;8.746;2024-01-11T15:35:05;10.40;38.00
28548;DHT22;68292;49.600;8.746;2024-01-11T15:37:35;10.40;38.00
28548;DHT22;68292;49.600;8.746;2024-01-11T15:40:05;10.40;38.00
28548;DHT22;68292;49.600;8.746;2024-01-11T15:42:36;10.40;38.00
28548;DHT22;68292;49.600;8.746;2024-01-11T15:45:06;10.30;37.90
28548;DHT22;68292;49.600;8.746;2024-01-11T15:47:35;10.30;37.90
28548;DHT22;68292;49.600;8.746;2024-01-11T15:50:06;10.30;37.80
28548;DHT22;68292;49.600;8.746;2024-01-11T15:52:38;10.30;37.80
28548;DHT22;68292;49.600;8.746;2024-01-11T15:55:08;10.30;37.80
28548;DHT22;68292;49.600;8.746;2024-01-11T15:57:39;10.30;37.80